sensor_id;sensor_type;location;lat;lon;timestamp;pressure;altitude;pressure_sealevel;temperature;humidity
74090;BME280;62448;-26.094;27.994;2022-07-23T08:25:48;85366.11;;;20.10;26.75
74090;BME280;62448;-26.094;27.994;2022-07-23T08:32:23;85364.63;;;8.35;27.15
74090;BME280;62448;-26.094;27.994;2022-07-23T08:34:48;85369.50;;;9.14;23.99
74090;BME280;62448;-26.094;27.994;2022-07-23T08:37:23;85367.27;;;9.21;23.70
74090;BME280;62448;-26.094;27.994;2022-07-23T08:39:49;85367.95;;;9.13;23.60
74090;BME280;62448;-26.094;27.994;2022-07-23T08:42:04;85365.18;;;10.28;23.50
74090;BME280;62448;-26.094;27.994;2022-07-23T08:44:29;85369.14;;;10.58;23.47
74090;BME280;62448;-26.094;27.994;2022-07-23T08:46:55;85359.98;;;10.14;23.55
74090;BME280;62448;-26.094;27.994;2022-07-23T08:49:21;85357.36;;;10.08;23.44
74090;BME280;62448;-26.094;27.994;2022-07-23T08:51:45;85354.11;;;10.07;23.42
74090;BME280;62448;-26.094;27.994;2022-07-23T08:54:11;85354.09;;;10.32;23.27
74090;BME280;62448;-26.094;27.994;2022-07-23T08:56:36;85350.83;;;10.40;23.17
74090;BME280;62448;-26.094;27.994;2022-07-23T08:59:01;85349.38;;;10.22;23.32
74090;BME280;62448;-26.094;27.994;2022-07-23T09:01:26;85348.62;;;10.00;23.31
74090;BME280;62448;-26.094;27.994;2022-07-23T09:03:52;85343.41;;;9.88;23.30
74090;BME280;62448;-26.094;27.994;2022-07-23T09:06:17;85340.51;;;9.93;23.40
74090;BME280;62448;-26.094;27.994;2022-07-23T09:08:44;85340.48;;;10.23;23.37
74090;BME280;62448;-26.094;27.994;2022-07-23T09:11:09;85335.62;;;9.44;23.21
74090;BME280;62448;-26.094;27.994;2022-07-23T09:13:36;85328.84;;;9.97;22.74
74090;BME280;62448;-26.094;27.994;2022-07-23T09:16:01;85324.26;;;10.32;22.41
74090;BME280;62448;-26.094;27.994;2022-07-23T09:18:38;85320.86;;;10.61;22.00
74090;BME280;62448;-26.094;27.994;2022-07-23T09:20:50;85321.90;;;10.64;21.94
74090;BME280;62448;-26.094;27.994;2022-07-23T09:23:15;85320.74;;;10.65;22.00
74090;BME280;62448;-26.094;27.994;2022-07-23T09:25:40;85317.71;;;11.07;21.92
74090;BME280;62448;-26.094;27.994;2022-07-23T09:28:06;85316.76;;;10.50;21.80
74090;BME280;62448;-26.094;27.994;2022-07-23T09:30:32;85310.50;;;10.80;21.70
74090;BME280;62448;-26.094;27.994;2022-07-23T09:33:13;85305.67;;;10.61;21.86
74090;BME280;62448;-26.094;27.994;2022-07-23T09:35:21;85303.17;;;10.65;21.86
74090;BME280;62448;-26.094;27.994;2022-07-23T09:38:01;85296.87;;;10.47;21.95
74090;BME280;62448;-26.094;27.994;2022-07-23T09:40:12;85290.56;;;10.75;21.87
74090;BME280;62448;-26.094;27.994;2022-07-23T09:42:37;85290.33;;;10.93;21.81
74090;BME280;62448;-26.094;27.994;2022-07-23T09:45:03;85294.24;;;11.23;21.59
74090;BME280;62448;-26.094;27.994;2022-07-23T09:47:29;85292.01;;;11.26;21.59
74090;BME280;62448;-26.094;27.994;2022-07-23T09:50:02;85283.42;;;11.31;21.55
74090;BME280;62448;-26.094;27.994;2022-07-23T09:52:27;85280.38;;;11.05;21.70
74090;BME280;62448;-26.094;27.994;2022-07-23T09:54:44;85278.80;;;10.78;21.85
74090;BME280;62448;-26.094;27.994;2022-07-23T09:57:12;85272.54;;;10.99;21.88
74090;BME280;62448;-26.094;27.994;2022-07-23T09:59:35;85272.04;;;11.06;21.75
74090;BME280;62448;-26.094;27.994;2022-07-23T10:02:00;85266.78;;;11.06;21.82
74090;BME280;62448;-26.094;27.994;2022-07-23T10:04:27;85260.78;;;11.00;21.80
74090;BME280;62448;-26.094;27.994;2022-07-23T10:06:54;85255.23;;;10.87;21.95
74090;BME280;62448;-26.094;27.994;2022-07-23T10:09:17;85249.79;;;11.00;22.30
74090;BME280;62448;-26.094;27.994;2022-07-23T10:11:41;85245.25;;;10.59;22.33
74090;BME280;62448;-26.094;27.994;2022-07-23T10:14:07;85237.20;;;10.81;22.16
74090;BME280;62448;-26.094;27.994;2022-07-23T10:16:32;85231.61;;;10.99;22.02
74090;BME280;62448;-26.094;27.994;2022-07-23T10:18:58;85226.77;;;11.10;22.04
74090;BME280;62448;-26.094;27.994;2022-07-23T10:21:27;85229.30;;;11.29;21.84
74090;BME280;62448;-26.094;27.994;2022-07-23T10:23:58;85224.53;;;11.18;21.89
74090;BME280;62448;-26.094;27.994;2022-07-23T10:26:20;85218.29;;;10.95;21.82
74090;BME280;62448;-26.094;27.994;2022-07-23T10:28:55;85215.80;;;11.28;21.70
74090;BME280;62448;-26.094;27.994;2022-07-23T10:31:10;85210.76;;;11.29;21.51
74090;BME280;62448;-26.094;27.994;2022-07-23T10:33:38;85207.64;;;11.51;21.49
74090;BME280;62448;-26.094;27.994;2022-07-23T10:36:01;85203.32;;;11.22;21.62
74090;BME280;62448;-26.094;27.994;2022-07-23T10:38:25;85192.89;;;11.44;21.63
74090;BME280;62448;-26.094;27.994;2022-07-23T10:41:03;85185.40;;;11.61;21.51
74090;BME280;62448;-26.094;27.994;2022-07-23T10:43:15;85184.59;;;11.75;21.40
74090;BME280;62448;-26.094;27.994;2022-07-23T10:45:37;85175.72;;;11.63;21.56
74090;BME280;62448;-26.094;27.994;2022-07-23T10:48:16;85174.02;;;11.42;21.63
74090;BME280;62448;-26.094;27.994;2022-07-23T10:50:29;85171.63;;;11.38;21.68
74090;BME280;62448;-26.094;27.994;2022-07-23T10:53:24;85158.27;;;11.92;21.40
74090;BME280;62448;-26.094;27.994;2022-07-23T10:55:51;85158.84;;;11.27;21.61
74090;BME280;62448;-26.094;27.994;2022-07-23T10:57:49;85146.23;;;11.36;21.43
74090;BME280;62448;-26.094;27.994;2022-07-23T11:00:23;85146.03;;;11.12;21.51
74090;BME280;62448;-26.094;27.994;2022-07-23T11:02:35;85142.69;;;11.40;21.41
74090;BME280;62448;-26.094;27.994;2022-07-23T11:05:03;85136.14;;;11.15;21.74
74090;BME280;62448;-26.094;27.994;2022-07-23T11:07:24;85134.70;;;10.88;21.95
74090;BME280;62448;-26.094;27.994;2022-07-23T11:09:49;85126.17;;;10.98;22.05
74090;BME280;62448;-26.094;27.994;2022-07-23T11:12:47;85120.58;;;10.50;22.02
74090;BME280;62448;-26.094;27.994;2022-07-23T11:15:22;85112.78;;;11.14;21.61
74090;BME280;62448;-26.094;27.994;2022-07-23T11:17:19;85111.28;;;11.38;21.57
74090;BME280;62448;-26.094;27.994;2022-07-23T11:19:31;85103.38;;;11.22;21.51
74090;BME280;62448;-26.094;27.994;2022-07-23T11:21:56;85105.24;;;11.65;21.48
74090;BME280;62448;-26.094;27.994;2022-07-23T11:24:23;85104.08;;;11.88;21.29
74090;BME280;62448;-26.094;27.994;2022-07-23T11:26:50;85097.98;;;12.15;21.14
74090;BME280;62448;-26.094;27.994;2022-07-23T11:29:46;85098.42;;;11.55;21.24
74090;BME280;62448;-26.094;27.994;2022-07-23T11:31:37;85095.96;;;11.52;21.17
74090;BME280;62448;-26.094;27.994;2022-07-23T11:34:28;85092.00;;;11.48;21.15
74090;BME280;62448;-26.094;27.994;2022-07-23T11:36:28;85089.60;;;11.21;21.05
74090;BME280;62448;-26.094;27.994;2022-07-23T11:38:54;85092.14;;;11.67;21.07
74090;BME280;62448;-26.094;27.994;2022-07-23T11:41:19;85086.72;;;11.30;20.98
74090;BME280;62448;-26.094;27.994;2022-07-23T11:43:45;85081.66;;;11.87;20.91
74090;BME280;62448;-26.094;27.994;2022-07-23T11:46:15;85079.07;;;11.41;20.99
74090;BME280;62448;-26.094;27.994;2022-07-23T11:48:35;85078.20;;;11.77;20.83
74090;BME280;62448;-26.094;27.994;2022-07-23T11:51:00;85074.00;;;12.02;20.72
74090;BME280;62448;-26.094;27.994;2022-07-23T11:53:27;85070.74;;;11.51;20.72
74090;BME280;62448;-26.094;27.994;2022-07-23T11:55:52;85069.26;;;11.65;20.68
74090;BME280;62448;-26.094;27.994;2022-07-23T11:58:17;85070.78;;;11.96;20.58
74090;BME280;62448;-26.094;27.994;2022-07-23T12:00:44;85069.07;;;11.43;21.03
74090;BME280;62448;-26.094;27.994;2022-07-23T12:03:07;85067.20;;;11.29;21.20
74090;BME280;62448;-26.094;27.994;2022-07-23T12:05:35;85059.21;;;10.96;21.37
74090;BME280;62448;-26.094;27.994;2022-07-23T12:07:59;85051.38;;;10.79;21.53
74090;BME280;62448;-26.094;27.994;2022-07-23T12:10:25;85047.85;;;10.85;21.53
74090;BME280;62448;-26.094;27.994;2022-07-23T12:12:49;85039.92;;;10.85;21.34
74090;BME280;62448;-26.094;27.994;2022-07-23T12:15:15;85029.78;;;11.45;20.92
74090;BME280;62448;-26.094;27.994;2022-07-23T12:17:41;85023.37;;;11.53;20.70
74090;BME280;62448;-26.094;27.994;2022-07-23T12:20:05;85023.72;;;11.42;20.63
74090;BME280;62448;-26.094;27.994;2022-07-23T12:22:36;85023.27;;;11.49;20.50
74090;BME280;62448;-26.094;27.994;2022-07-23T12:24:56;85020.97;;;11.72;20.42
74090;BME280;62448;-26.094;27.994;2022-07-23T12:27:21;85025.81;;;11.50;20.53
74090;BME280;62448;-26.094;27.994;2022-07-23T12:29:45;85023.76;;;11.32;20.42
74090;BME280;62448;-26.094;27.994;2022-07-23T12:32:18;85027.26;;;11.43;20.35
74090;BME280;62448;-26.094;27.994;2022-07-23T12:34:36;85028.01;;;11.61;20.34
74090;BME280;62448;-26.094;27.994;2022-07-23T12:37:01;85029.95;;;11.76;20.32
74090;BME280;62448;-26.094;27.994;2022-07-23T12:39:34;85026.18;;;11.98;20.19
74090;BME280;62448;-26.094;27.994;2022-07-23T12:41:52;85028.03;;;11.53;20.17
74090;BME280;62448;-26.094;27.994;2022-07-23T12:44:17;85024.19;;;11.41;20.22
74090;BME280;62448;-26.094;27.994;2022-07-23T12:46:42;85024.62;;;11.73;20.09
74090;BME280;62448;-26.094;27.994;2022-07-23T12:49:08;85022.54;;;11.85;20.08
74090;BME280;62448;-26.094;27.994;2022-07-23T12:51:39;85022.45;;;11.54;20.11
74090;BME280;62448;-26.094;27.994;2022-07-23T12:54:05;85016.44;;;11.64;20.05
74090;BME280;62448;-26.094;27.994;2022-07-23T12:56:29;85013.99;;;11.74;20.49
74090;BME280;62448;-26.094;27.994;2022-07-23T12:58:51;85010.67;;;11.35;20.78
74090;BME280;62448;-26.094;27.994;2022-07-23T13:01:26;85009.47;;;11.40;20.87
74090;BME280;62448;-26.094;27.994;2022-07-23T13:03:41;85003.06;;;11.46;20.83
74090;BME280;62448;-26.094;27.994;2022-07-23T13:06:07;84998.64;;;10.99;21.06
74090;BME280;62448;-26.094;27.994;2022-07-23T13:08:32;84996.04;;;10.88;21.10
74090;BME280;62448;-26.094;27.994;2022-07-23T13:10:55;84998.65;;;11.80;20.82
74090;BME280;62448;-26.094;27.994;2022-07-23T13:13:22;84994.74;;;11.29;20.69
74090;BME280;62448;-26.094;27.994;2022-07-23T13:15:45;84995.93;;;11.77;20.65
74090;BME280;62448;-26.094;27.994;2022-07-23T13:18:10;84989.44;;;12.10;20.49
74090;BME280;62448;-26.094;27.994;2022-07-23T13:20:35;84987.64;;;12.00;20.47
74090;BME280;62448;-26.094;27.994;2022-07-23T13:23:01;84980.31;;;12.23;20.39
74090;BME280;62448;-26.094;27.994;2022-07-23T13:25:26;84976.79;;;12.89;19.98
74090;BME280;62448;-26.094;27.994;2022-07-23T13:27:51;84970.99;;;12.34;20.16
74090;BME280;62448;-26.094;27.994;2022-07-23T13:30:17;84974.12;;;12.12;20.23
74090;BME280;62448;-26.094;27.994;2022-07-23T13:32:42;84981.94;;;12.44;20.15
74090;BME280;62448;-26.094;27.994;2022-07-23T13:35:08;84977.72;;;12.30;20.16
74090;BME280;62448;-26.094;27.994;2022-07-23T13:37:33;84978.23;;;12.10;20.17
74090;BME280;62448;-26.094;27.994;2022-07-23T13:39:58;84973.26;;;12.17;20.31
74090;BME280;62448;-26.094;27.994;2022-07-23T13:42:24;84970.16;;;11.93;20.23
74090;BME280;62448;-26.094;27.994;2022-07-23T13:44:49;84964.40;;;12.11;20.10
74090;BME280;62448;-26.094;27.994;2022-07-23T13:47:14;84964.55;;;12.02;20.20
74090;BME280;62448;-26.094;27.994;2022-07-23T13:49:39;84963.09;;;11.80;20.19
74090;BME280;62448;-26.094;27.994;2022-07-23T13:52:05;84959.85;;;12.15;20.32
74090;BME280;62448;-26.094;27.994;2022-07-23T13:54:30;84954.26;;;12.03;20.61
74090;BME280;62448;-26.094;27.994;2022-07-23T13:56:55;84956.32;;;11.63;20.89
74090;BME280;62448;-26.094;27.994;2022-07-23T13:59:20;84961.51;;;11.52;20.95
74090;BME280;62448;-26.094;27.994;2022-07-23T14:01:45;84956.24;;;11.50;21.16
74090;BME280;62448;-26.094;27.994;2022-07-23T14:04:11;84953.43;;;11.63;21.07
74090;BME280;62448;-26.094;27.994;2022-07-23T14:06:36;84951.71;;;11.26;21.18
74090;BME280;62448;-26.094;27.994;2022-07-23T14:09:01;84951.49;;;11.37;21.17
74090;BME280;62448;-26.094;27.994;2022-07-23T14:11:26;84951.75;;;11.37;21.11
74090;BME280;62448;-26.094;27.994;2022-07-23T14:13:51;84957.19;;;11.64;20.70
74090;BME280;62448;-26.094;27.994;2022-07-23T14:16:17;84954.49;;;12.04;20.36
74090;BME280;62448;-26.094;27.994;2022-07-23T14:18:42;84959.15;;;11.48;20.22
74090;BME280;62448;-26.094;27.994;2022-07-23T14:21:07;84960.43;;;11.92;20.09
74090;BME280;62448;-26.094;27.994;2022-07-23T14:23:32;84963.40;;;11.97;19.92
74090;BME280;62448;-26.094;27.994;2022-07-23T14:25:57;84966.15;;;12.20;19.84
74090;BME280;62448;-26.094;27.994;2022-07-23T14:28:23;84973.61;;;11.79;19.94
74090;BME280;62448;-26.094;27.994;2022-07-23T14:30:48;84976.62;;;12.03;19.91
74090;BME280;62448;-26.094;27.994;2022-07-23T14:33:13;84969.28;;;12.04;19.82
74090;BME280;62448;-26.094;27.994;2022-07-23T14:35:39;84971.87;;;12.47;19.75
74090;BME280;62448;-26.094;27.994;2022-07-23T14:38:04;84967.61;;;12.13;19.76
74090;BME280;62448;-26.094;27.994;2022-07-23T14:40:29;84967.09;;;12.02;19.81
74090;BME280;62448;-26.094;27.994;2022-07-23T14:42:54;84966.85;;;12.00;19.82
74090;BME280;62448;-26.094;27.994;2022-07-23T14:45:20;84974.46;;;12.34;19.68
74090;BME280;62448;-26.094;27.994;2022-07-23T14:47:46;84976.24;;;12.21;19.67
74090;BME280;62448;-26.094;27.994;2022-07-23T14:50:11;84972.40;;;12.03;19.74
74090;BME280;62448;-26.094;27.994;2022-07-23T14:52:36;84973.04;;;12.14;20.14
74090;BME280;62448;-26.094;27.994;2022-07-23T14:55:01;84972.75;;;11.83;20.43
74090;BME280;62448;-26.094;27.994;2022-07-23T14:57:27;84969.43;;;12.02;20.50
74090;BME280;62448;-26.094;27.994;2022-07-23T14:59:52;84973.36;;;11.89;20.58
74090;BME280;62448;-26.094;27.994;2022-07-23T15:02:17;84970.61;;;11.88;20.64
74090;BME280;62448;-26.094;27.994;2022-07-23T15:04:42;84970.28;;;11.51;20.96
74090;BME280;62448;-26.094;27.994;2022-07-23T15:07:08;84967.85;;;11.74;21.10
74090;BME280;62448;-26.094;27.994;2022-07-23T15:09:33;84966.15;;;11.26;21.47
74090;BME280;62448;-26.094;27.994;2022-07-23T15:11:58;84967.84;;;11.56;21.45
74090;BME280;62448;-26.094;27.994;2022-07-23T15:14:23;84969.79;;;12.43;20.79
74090;BME280;62448;-26.094;27.994;2022-07-23T15:16:49;84970.95;;;11.84;20.87
74090;BME280;62448;-26.094;27.994;2022-07-23T15:19:14;84972.69;;;11.95;20.64
74090;BME280;62448;-26.094;27.994;2022-07-23T15:21:39;84975.02;;;12.55;20.40
74090;BME280;62448;-26.094;27.994;2022-07-23T15:24:04;84979.42;;;12.08;20.31
74090;BME280;62448;-26.094;27.994;2022-07-23T15:26:30;84981.07;;;12.20;20.26
74090;BME280;62448;-26.094;27.994;2022-07-23T15:28:55;84982.22;;;12.52;20.12
74090;BME280;62448;-26.094;27.994;2022-07-23T15:31:20;84985.88;;;11.96;20.21
74090;BME280;62448;-26.094;27.994;2022-07-23T15:33:45;84987.39;;;12.76;20.01
74090;BME280;62448;-26.094;27.994;2022-07-23T15:36:11;84986.57;;;12.29;20.11
74090;BME280;62448;-26.094;27.994;2022-07-23T15:38:36;84987.70;;;11.87;20.18
74090;BME280;62448;-26.094;27.994;2022-07-23T15:41:01;84985.69;;;11.90;20.07
74090;BME280;62448;-26.094;27.994;2022-07-23T15:43:26;84986.44;;;12.09;20.04
74090;BME280;62448;-26.094;27.994;2022-07-23T15:45:52;84986.82;;;12.99;19.65
74090;BME280;62448;-26.094;27.994;2022-07-23T15:48:18;84985.95;;;12.57;19.79
74090;BME280;62448;-26.094;27.994;2022-07-23T15:50:42;84987.53;;;12.80;19.84
74090;BME280;62448;-26.094;27.994;2022-07-23T15:53:08;84991.33;;;12.62;20.19
74090;BME280;62448;-26.094;27.994;2022-07-23T15:55:33;84994.35;;;12.13;20.39
74090;BME280;62448;-26.094;27.994;2022-07-23T15:57:58;84998.35;;;11.85;20.62
74090;BME280;62448;-26.094;27.994;2022-07-23T16:00:23;84997.54;;;11.95;20.53
74090;BME280;62448;-26.094;27.994;2022-07-23T16:02:49;84999.22;;;11.72;20.69
74090;BME280;62448;-26.094;27.994;2022-07-23T16:05:14;84998.64;;;12.10;20.69
74090;BME280;62448;-26.094;27.994;2022-07-23T16:07:39;85001.50;;;11.50;21.01
74090;BME280;62448;-26.094;27.994;2022-07-23T16:10:05;85003.51;;;11.17;21.15
74090;BME280;62448;-26.094;27.994;2022-07-23T16:12:47;85006.38;;;11.32;21.09
74090;BME280;62448;-26.094;27.994;2022-07-23T16:15:12;84999.72;;;11.89;20.57
74090;BME280;62448;-26.094;27.994;2022-07-23T16:17:38;84997.14;;;12.25;20.04
74090;BME280;62448;-26.094;27.994;2022-07-23T16:20:04;85001.85;;;12.09;19.89
74090;BME280;62448;-26.094;27.994;2022-07-23T16:22:28;85008.23;;;12.64;19.70
74090;BME280;62448;-26.094;27.994;2022-07-23T16:24:53;85018.44;;;12.56;19.56
74090;BME280;62448;-26.094;27.994;2022-07-23T16:27:18;85021.37;;;12.41;19.60
74090;BME280;62448;-26.094;27.994;2022-07-23T16:29:43;85025.85;;;12.32;19.56
74090;BME280;62448;-26.094;27.994;2022-07-23T16:32:09;85031.95;;;12.34;19.78
74090;BME280;62448;-26.094;27.994;2022-07-23T16:34:34;85033.97;;;12.84;19.34
74090;BME280;62448;-26.094;27.994;2022-07-23T16:37:00;85036.78;;;13.01;19.20
74090;BME280;62448;-26.094;27.994;2022-07-23T16:39:25;85039.42;;;13.02;19.06
74090;BME280;62448;-26.094;27.994;2022-07-23T16:41:50;85041.80;;;12.69;19.19
74090;BME280;62448;-26.094;27.994;2022-07-23T16:44:15;85042.07;;;12.70;19.24
74090;BME280;62448;-26.094;27.994;2022-07-23T16:46:40;85047.28;;;12.53;19.23
74090;BME280;62448;-26.094;27.994;2022-07-23T16:49:06;85049.24;;;13.13;19.09
74090;BME280;62448;-26.094;27.994;2022-07-23T16:51:31;85049.24;;;12.65;19.51
74090;BME280;62448;-26.094;27.994;2022-07-23T16:53:56;85049.57;;;12.57;19.73
74090;BME280;62448;-26.094;27.994;2022-07-23T16:56:22;85049.25;;;12.40;19.81
74090;BME280;62448;-26.094;27.994;2022-07-23T16:58:46;85051.39;;;12.31;19.96
74090;BME280;62448;-26.094;27.994;2022-07-23T17:01:11;85050.19;;;12.16;20.18
74090;BME280;62448;-26.094;27.994;2022-07-23T17:03:37;85057.43;;;11.51;20.31
74090;BME280;62448;-26.094;27.994;2022-07-23T17:06:03;85066.81;;;12.19;20.07
74090;BME280;62448;-26.094;27.994;2022-07-23T17:08:28;85072.81;;;12.70;19.90
74090;BME280;62448;-26.094;27.994;2022-07-23T17:10:53;85073.10;;;12.50;19.92
74090;BME280;62448;-26.094;27.994;2022-07-23T17:13:19;85073.77;;;11.83;19.87
74090;BME280;62448;-26.094;27.994;2022-07-23T17:15:44;85070.06;;;12.38;19.57
74090;BME280;62448;-26.094;27.994;2022-07-23T17:18:10;85069.34;;;13.01;19.12
74090;BME280;62448;-26.094;27.994;2022-07-23T17:20:35;85071.43;;;13.08;19.05
74090;BME280;62448;-26.094;27.994;2022-07-23T17:23:01;85073.14;;;12.91;19.01
74090;BME280;62448;-26.094;27.994;2022-07-23T17:25:26;85077.84;;;13.02;18.76
74090;BME280;62448;-26.094;27.994;2022-07-23T17:27:52;85073.51;;;13.17;18.77
74090;BME280;62448;-26.094;27.994;2022-07-23T17:30:18;85071.97;;;13.73;18.59
74090;BME280;62448;-26.094;27.994;2022-07-23T17:32:44;85070.40;;;13.37;18.70
74090;BME280;62448;-26.094;27.994;2022-07-23T17:35:09;85065.21;;;13.54;18.48
74090;BME280;62448;-26.094;27.994;2022-07-23T17:37:35;85065.14;;;13.57;18.55
74090;BME280;62448;-26.094;27.994;2022-07-23T17:40:00;85065.50;;;13.30;18.68
74090;BME280;62448;-26.094;27.994;2022-07-23T17:42:26;85062.67;;;13.31;18.46
74090;BME280;62448;-26.094;27.994;2022-07-23T17:44:52;85065.03;;;13.48;18.45
74090;BME280;62448;-26.094;27.994;2022-07-23T17:47:17;85064.75;;;13.71;18.76
74090;BME280;62448;-26.094;27.994;2022-07-23T17:49:43;85064.05;;;12.80;19.25
74090;BME280;62448;-26.094;27.994;2022-07-23T17:52:08;85062.23;;;12.79;19.31
74090;BME280;62448;-26.094;27.994;2022-07-23T17:54:34;85062.73;;;13.05;19.37
74090;BME280;62448;-26.094;27.994;2022-07-23T17:57:00;85064.11;;;12.94;19.55
74090;BME280;62448;-26.094;27.994;2022-07-23T17:59:25;85060.00;;;12.28;19.67
74090;BME280;62448;-26.094;27.994;2022-07-23T18:01:51;85060.76;;;12.57;19.63
74090;BME280;62448;-26.094;27.994;2022-07-23T18:04:16;85059.47;;;12.55;19.57
74090;BME280;62448;-26.094;27.994;2022-07-23T18:06:42;85059.96;;;12.71;19.68
74090;BME280;62448;-26.094;27.994;2022-07-23T18:09:07;85059.79;;;12.61;19.67
74090;BME280;62448;-26.094;27.994;2022-07-23T18:11:32;85061.44;;;12.79;19.67
74090;BME280;62448;-26.094;27.994;2022-07-23T18:13:58;85061.44;;;12.18;19.56
74090;BME280;62448;-26.094;27.994;2022-07-23T18:16:23;85060.60;;;13.07;19.05
74090;BME280;62448;-26.094;27.994;2022-07-23T18:18:48;85060.92;;;13.49;18.84
74090;BME280;62448;-26.094;27.994;2022-07-23T18:21:13;85063.54;;;13.51;18.77
74090;BME280;62448;-26.094;27.994;2022-07-23T18:23:39;85068.14;;;13.57;18.67
74090;BME280;62448;-26.094;27.994;2022-07-23T18:26:04;85067.36;;;13.64;18.58
74090;BME280;62448;-26.094;27.994;2022-07-23T18:28:30;85069.75;;;13.21;18.63
74090;BME280;62448;-26.094;27.994;2022-07-23T18:30:56;85071.21;;;13.60;18.52
74090;BME280;62448;-26.094;27.994;2022-07-23T18:33:21;85072.51;;;13.13;18.45
74090;BME280;62448;-26.094;27.994;2022-07-23T18:35:46;85075.64;;;13.38;18.56
74090;BME280;62448;-26.094;27.994;2022-07-23T18:38:12;85071.78;;;13.68;18.45
74090;BME280;62448;-26.094;27.994;2022-07-23T18:40:38;85072.21;;;13.74;18.53
74090;BME280;62448;-26.094;27.994;2022-07-23T18:43:03;85073.96;;;13.76;18.46
74090;BME280;62448;-26.094;27.994;2022-07-23T18:45:30;85072.07;;;13.43;18.79
74090;BME280;62448;-26.094;27.994;2022-07-23T18:47:55;85070.50;;;13.40;19.10
74090;BME280;62448;-26.094;27.994;2022-07-23T18:50:21;85074.02;;;12.38;19.38
74090;BME280;62448;-26.094;27.994;2022-07-23T18:52:46;85077.11;;;12.75;19.48
74090;BME280;62448;-26.094;27.994;2022-07-23T18:55:12;85079.26;;;12.67;19.47
74090;BME280;62448;-26.094;27.994;2022-07-23T18:57:37;85080.27;;;12.93;19.65
74090;BME280;62448;-26.094;27.994;2022-07-23T19:00:04;85082.65;;;12.54;19.74
74090;BME280;62448;-26.094;27.994;2022-07-23T19:02:27;85078.74;;;12.54;19.63
74090;BME280;62448;-26.094;27.994;2022-07-23T19:04:52;85082.08;;;12.46;19.71
74090;BME280;62448;-26.094;27.994;2022-07-23T19:07:18;85082.62;;;12.77;19.68
74090;BME280;62448;-26.094;27.994;2022-07-23T19:09:44;85084.57;;;12.39;19.76
74090;BME280;62448;-26.094;27.994;2022-07-23T19:12:09;85081.48;;;12.93;19.71
74090;BME280;62448;-26.094;27.994;2022-07-23T19:14:35;85079.70;;;11.97;19.65
74090;BME280;62448;-26.094;27.994;2022-07-23T19:17:00;85077.90;;;12.74;19.15
74090;BME280;62448;-26.094;27.994;2022-07-23T19:19:26;85082.32;;;13.33;18.86
74090;BME280;62448;-26.094;27.994;2022-07-23T19:21:51;85083.20;;;13.48;18.76
74090;BME280;62448;-26.094;27.994;2022-07-23T19:24:16;85083.52;;;13.43;18.73
74090;BME280;62448;-26.094;27.994;2022-07-23T19:26:41;85083.58;;;13.29;18.67
74090;BME280;62448;-26.094;27.994;2022-07-23T19:29:07;85085.40;;;13.29;18.64
74090;BME280;62448;-26.094;27.994;2022-07-23T19:31:32;85084.17;;;13.43;18.61
74090;BME280;62448;-26.094;27.994;2022-07-23T19:33:58;85084.76;;;13.55;18.53
74090;BME280;62448;-26.094;27.994;2022-07-23T19:36:23;85084.17;;;13.42;18.53
74090;BME280;62448;-26.094;27.994;2022-07-23T19:38:49;85083.34;;;13.34;18.57
74090;BME280;62448;-26.094;27.994;2022-07-23T19:41:14;85076.52;;;13.52;18.60
74090;BME280;62448;-26.094;27.994;2022-07-23T19:43:40;85075.82;;;13.09;19.01
74090;BME280;62448;-26.094;27.994;2022-07-23T19:46:06;85075.46;;;12.66;19.24
74090;BME280;62448;-26.094;27.994;2022-07-23T19:48:31;85070.41;;;12.61;19.50
74090;BME280;62448;-26.094;27.994;2022-07-23T19:50:57;85068.74;;;12.80;19.59
74090;BME280;62448;-26.094;27.994;2022-07-23T19:53:22;85073.23;;;12.66;19.69
74090;BME280;62448;-26.094;27.994;2022-07-23T19:55:48;85077.75;;;12.30;19.85
74090;BME280;62448;-26.094;27.994;2022-07-23T19:58:13;85077.99;;;12.25;19.81
74090;BME280;62448;-26.094;27.994;2022-07-23T20:00:38;85075.60;;;12.41;19.79
74090;BME280;62448;-26.094;27.994;2022-07-23T20:03:04;85072.47;;;12.58;19.82
74090;BME280;62448;-26.094;27.994;2022-07-23T20:05:29;85065.69;;;12.58;19.83
74090;BME280;62448;-26.094;27.994;2022-07-23T20:07:55;85065.70;;;11.94;19.86
74090;BME280;62448;-26.094;27.994;2022-07-23T20:10:20;85067.83;;;12.27;19.89
74090;BME280;62448;-26.094;27.994;2022-07-23T20:12:45;85067.90;;;12.32;19.85
74090;BME280;62448;-26.094;27.994;2022-07-23T20:15:13;85071.48;;;12.21;19.63
74090;BME280;62448;-26.094;27.994;2022-07-23T20:17:37;85072.79;;;12.47;19.24
74090;BME280;62448;-26.094;27.994;2022-07-23T20:20:02;85066.84;;;12.83;19.01
74090;BME280;62448;-26.094;27.994;2022-07-23T20:22:27;85070.24;;;12.97;18.93
74090;BME280;62448;-26.094;27.994;2022-07-23T20:24:52;85071.25;;;13.14;18.84
74090;BME280;62448;-26.094;27.994;2022-07-23T20:27:18;85070.53;;;13.10;18.84
74090;BME280;62448;-26.094;27.994;2022-07-23T20:29:43;85068.23;;;13.21;18.77
74090;BME280;62448;-26.094;27.994;2022-07-23T20:32:08;85072.83;;;13.08;18.73
74090;BME280;62448;-26.094;27.994;2022-07-23T20:34:34;85068.98;;;13.37;18.74
74090;BME280;62448;-26.094;27.994;2022-07-23T20:36:59;85070.46;;;13.16;18.78
74090;BME280;62448;-26.094;27.994;2022-07-23T20:39:26;85066.60;;;13.20;18.80
74090;BME280;62448;-26.094;27.994;2022-07-23T20:41:51;85063.57;;;12.78;19.31
74090;BME280;62448;-26.094;27.994;2022-07-23T20:44:16;85056.80;;;12.29;19.56
74090;BME280;62448;-26.094;27.994;2022-07-23T20:46:42;85049.14;;;12.74;19.70
74090;BME280;62448;-26.094;27.994;2022-07-23T20:49:08;85047.68;;;12.10;19.81
74090;BME280;62448;-26.094;27.994;2022-07-23T20:51:34;85044.00;;;12.11;19.89
74090;BME280;62448;-26.094;27.994;2022-07-23T20:53:59;85046.91;;;12.29;19.94
74090;BME280;62448;-26.094;27.994;2022-07-23T20:56:24;85054.11;;;12.35;19.92
74090;BME280;62448;-26.094;27.994;2022-07-23T20:58:49;85053.94;;;12.20;20.00